Terminal Aerodrome Forecast
Issued by NWS

Home | Current Version | Previous Version | Text Only | Print | Product List | Glossary On
Versions: 1 2 3 4 5 6 7 8 9 10 11 12 13 14 15 16 17 18 19
000
FTUS43 KAPX 282044 AAA
TAFMBL
TAF AMD
KMBL 282044Z 2821/2918 17013KT P6SM -SHRA FEW015 OVC030
     FM290100 18012KT 5SM SHRA VCTS OVC025CB WS020/20050KT
     FM290600 21012KT P6SM VCSH OVC025 WS020/21045KT
     FM291200 23011KT P6SM BKN025
     FM291700 23013KT P6SM BKN050=

USA.gov is the U.S. government's official web portal to all federal, state and local government web resources and services.